createdAt,value
2022-10-02T00:00:35.935Z,96464.34
2022-10-02T00:02:04.877Z,96465.53
2022-10-02T00:03:14.144Z,96470.94
2022-10-02T00:04:23.826Z,96469.03
2022-10-02T00:05:36.164Z,96473.31
2022-10-02T00:06:47.116Z,96480.28
2022-10-02T00:07:55.904Z,96486.47
2022-10-02T00:09:03.382Z,96496.56
2022-10-02T00:10:44.730Z,96508.16
2022-10-02T00:11:50.398Z,96526.38
2022-10-02T00:12:57.314Z,96523.28
2022-10-02T00:14:04.322Z,96521.34
2022-10-02T00:15:24.351Z,96521.34
2022-10-02T00:16:40.199Z,96522.91
2022-10-02T00:17:46.313Z,96530.25
2022-10-02T00:18:49.131Z,96536.06
2022-10-02T00:19:55.874Z,96532.97
2022-10-02T00:21:12.225Z,96534.53
2022-10-02T00:22:16.540Z,96539.19
2022-10-02T00:23:24.505Z,96527.53
2022-10-02T00:24:50.805Z,96532.19
2022-10-02T00:26:19.919Z,96537.63
2022-10-02T00:27:42.159Z,96532.19
2022-10-02T00:28:52.647Z,96538.75
2022-10-02T00:29:58.925Z,96532.94
2022-10-02T00:31:36.219Z,96548.47
2022-10-02T00:33:12.872Z,96537.59
2022-10-02T00:34:29.867Z,96539.13
2022-10-02T00:35:56.529Z,96533.69
2022-10-02T00:37:30.375Z,96529.84
2022-10-02T00:38:47.694Z,96531.41
2022-10-02T00:40:17.877Z,96532.16
2022-10-02T00:42:04.936Z,96536.81
2022-10-02T00:43:25.006Z,96539.91
2022-10-02T00:44:32.529Z,96535.25
2022-10-02T00:45:39.857Z,96540.66
2022-10-02T00:47:09.243Z,96543.78
2022-10-02T00:48:31.935Z,96536.41
2022-10-02T00:49:52.047Z,96544.53
2022-10-02T00:51:10.887Z,96534.44
2022-10-02T00:52:49.734Z,96530.91
2022-10-02T00:54:38.333Z,96530.16
2022-10-02T00:55:57.092Z,96539.06
2022-10-02T00:57:01.425Z,96537.50
2022-10-02T00:58:31.658Z,96532.81
2022-10-02T01:00:00.765Z,96537.84
2022-10-02T01:01:08.226Z,96532.03
2022-10-02T01:02:33.948Z,96537.44
2022-10-02T01:03:41.670Z,96529.28
2022-10-02T01:04:43.298Z,96528.13
2022-10-02T01:05:45.435Z,96531.22
2022-10-02T01:06:46.937Z,96528.13
2022-10-02T01:07:51.581Z,96534.31
2022-10-02T01:08:53.635Z,96532.00
2022-10-02T01:09:55.666Z,96524.25
2022-10-02T01:10:57.382Z,96530.50
2022-10-02T01:12:00.336Z,96527.38
2022-10-02T01:13:01.955Z,96532.06
2022-10-02T01:14:03.963Z,96530.91
2022-10-02T01:15:17.301Z,96528.97
2022-10-02T01:16:19.210Z,96535.19
2022-10-02T01:17:25.512Z,96532.88
2022-10-02T01:18:29.390Z,96534.41
2022-10-02T01:19:38.190Z,96541.38
2022-10-02T01:20:52.696Z,96541.38
2022-10-02T01:22:03.998Z,96542.91
2022-10-02T01:23:20.247Z,96539.03
2022-10-02T01:24:51.647Z,96547.19
2022-10-02T01:25:53.324Z,96545.25
2022-10-02T01:26:54.856Z,96546.06
2022-10-02T01:27:57.239Z,96551.50
2022-10-02T01:28:58.934Z,96547.63
2022-10-02T01:30:09.538Z,96553.44
2022-10-02T01:31:15.338Z,96554.19
2022-10-02T01:32:18.505Z,96551.09
2022-10-02T01:33:20.542Z,96554.53
2022-10-02T01:34:23.955Z,96553.75
2022-10-02T01:35:32.699Z,96563.84
2022-10-02T01:36:34.475Z,96557.63
2022-10-02T01:37:40.962Z,96558.44
2022-10-02T01:38:44.149Z,96553.78
2022-10-02T01:39:45.846Z,96559.97
2022-10-02T01:40:47.452Z,96555.72
2022-10-02T01:41:49.003Z,96552.25
2022-10-02T01:42:51.323Z,96552.25
2022-10-02T01:43:57.982Z,96558.50
2022-10-02T01:44:59.887Z,96556.97
2022-10-02T01:46:22.579Z,96556.19
2022-10-02T01:47:51.605Z,96561.25
2022-10-02T01:49:11.514Z,96560.09
2022-10-02T01:50:39.848Z,96553.09
2022-10-02T01:51:49.167Z,96551.56
2022-10-02T01:53:07.850Z,96553.13
2022-10-02T01:54:36.865Z,96555.84
2022-10-02T01:55:44.940Z,96553.91
2022-10-02T01:57:05.086Z,96553.91
2022-10-02T01:58:33.692Z,96551.56
2022-10-02T01:59:55.430Z,96551.56
2022-10-02T02:01:18.928Z,96560.09
2022-10-02T02:02:36.594Z,96564.75
2022-10-02T02:04:19.805Z,96577.94
2022-10-02T02:05:44.547Z,96575.59
2022-10-02T02:07:01.501Z,96582.56
2022-10-02T02:08:28.882Z,96574.84
2022-10-02T02:09:33.274Z,96570.97
2022-10-02T02:10:48.845Z,96567.88
2022-10-02T02:12:14.767Z,96565.53
2022-10-02T02:13:24.789Z,96570.94
2022-10-02T02:14:33.113Z,96563.56
2022-10-02T02:15:42.259Z,96565.50
2022-10-02T02:16:48.621Z,96573.25
2022-10-02T02:17:55.506Z,96561.63
2022-10-02T02:19:26.140Z,96565.09
2022-10-02T02:20:36.822Z,96568.59
2022-10-02T02:21:53.151Z,96581.03
2022-10-02T02:22:58.490Z,96579.84
2022-10-02T02:24:03.866Z,96572.88
2022-10-02T02:25:14.398Z,96580.66
2022-10-02T02:26:19.901Z,96580.28
2022-10-02T02:27:34.505Z,96582.56
2022-10-02T02:28:37.960Z,96584.91
2022-10-02T02:29:43.095Z,96581.03
2022-10-02T02:30:49.058Z,96587.66
2022-10-02T02:31:53.427Z,96585.72
2022-10-02T02:33:01.965Z,96589.19
2022-10-02T02:34:09.881Z,96594.22
2022-10-02T02:35:17.809Z,96601.94
2022-10-02T02:36:24.946Z,96600.03
2022-10-02T02:37:31.983Z,96606.56
2022-10-02T02:38:38.239Z,96607.31
2022-10-02T02:39:43.382Z,96599.19
2022-10-02T02:40:47.300Z,96601.06
2022-10-02T02:41:58.698Z,96600.66
2022-10-02T02:43:06.963Z,96597.94
2022-10-02T02:44:38.479Z,96606.03
2022-10-02T02:45:50.230Z,96609.88
2022-10-02T02:47:12.735Z,96609.09
2022-10-02T02:48:36.918Z,96608.31
2022-10-02T02:50:03.374Z,96614.88
2022-10-02T02:51:14.918Z,96616.44
2022-10-02T02:52:25.646Z,96616.81
2022-10-02T02:53:49.522Z,96624.94
2022-10-02T02:55:10.177Z,96631.94
2022-10-02T02:56:16.765Z,96621.09
2022-10-02T02:57:26.995Z,96624.94
2022-10-02T02:58:34.994Z,96630.00
2022-10-02T02:59:39.987Z,96638.13
2022-10-02T03:00:41.676Z,96633.13
2022-10-02T03:01:43.366Z,96627.28
2022-10-02T03:02:45.021Z,96625.75
2022-10-02T03:03:46.573Z,96636.22
2022-10-02T03:04:48.098Z,96630.41
2022-10-02T03:05:58.255Z,96638.19
2022-10-02T03:07:03.927Z,96631.97
2022-10-02T03:08:12.849Z,96628.13
2022-10-02T03:09:21.243Z,96626.56
2022-10-02T03:10:52.279Z,96628.13
2022-10-02T03:12:10.189Z,96631.22
2022-10-02T03:13:33.539Z,96631.63
2022-10-02T03:14:51.670Z,96628.91
2022-10-02T03:16:01.751Z,96622.72
2022-10-02T03:17:24.396Z,96639.75
2022-10-02T03:19:10.357Z,96654.50
2022-10-02T03:20:17.589Z,96657.59
2022-10-02T03:21:28.921Z,96652.16
2022-10-02T03:22:55.029Z,96646.38
2022-10-02T03:24:18.871Z,96663.03
2022-10-02T03:25:59.423Z,96673.09
2022-10-02T03:27:17.643Z,96669.25
2022-10-02T03:28:53.595Z,96663.81
2022-10-02T03:29:57.048Z,96670.00
2022-10-02T03:30:59.868Z,96666.91
2022-10-02T03:32:03.352Z,96660.75
2022-10-02T03:33:06.372Z,96670.03
2022-10-02T03:34:08.492Z,96675.50
2022-10-02T03:35:13.162Z,96669.31
2022-10-02T03:36:17.948Z,96676.69
2022-10-02T03:37:19.998Z,96682.50
2022-10-02T03:38:24.012Z,96689.50
2022-10-02T03:39:26.323Z,96689.09
2022-10-02T03:40:28.167Z,96694.09
2022-10-02T03:41:29.680Z,96700.72
2022-10-02T03:42:33.124Z,96699.53
2022-10-02T03:43:34.676Z,96697.97
2022-10-02T03:44:36.189Z,96696.81
2022-10-02T03:45:50.990Z,96696.34
2022-10-02T03:46:53.255Z,96694.00
2022-10-02T03:47:54.865Z,96693.19
2022-10-02T03:48:56.667Z,96700.16
2022-10-02T03:49:58.342Z,96695.84
2022-10-02T03:50:59.970Z,96697.81
2022-10-02T03:52:01.874Z,96695.03
2022-10-02T03:53:11.145Z,96697.69
2022-10-02T03:54:17.740Z,96703.53
2022-10-02T03:55:33.888Z,96702.75
2022-10-02T03:56:52.046Z,96697.31
2022-10-02T03:57:55.289Z,96702.31
2022-10-02T03:59:01.824Z,96711.19
2022-10-02T04:00:09.226Z,96703.81
2022-10-02T04:01:22.930Z,96702.25
2022-10-02T04:02:35.794Z,96703.03
2022-10-02T04:03:43.730Z,96706.91
2022-10-02T04:04:56.362Z,96702.97
2022-10-02T04:06:22.669Z,96698.75
2022-10-02T04:07:32.996Z,96692.13
2022-10-02T04:08:43.688Z,96692.91
2022-10-02T04:10:09.177Z,96695.94
2022-10-02T04:11:18.897Z,96699.00
2022-10-02T04:12:31.069Z,96698.59
2022-10-02T04:13:40.278Z,96705.13
2022-10-02T04:15:21.137Z,96706.72
2022-10-02T04:16:24.274Z,96715.97
2022-10-02T04:17:44.900Z,96710.56
2022-10-02T04:18:57.418Z,96723.69
2022-10-02T04:20:44.890Z,96719.81
2022-10-02T04:21:54.551Z,96724.47
2022-10-02T04:23:17.851Z,96727.59
2022-10-02T04:24:48.329Z,96735.78
2022-10-02T04:25:55.943Z,96733.44
2022-10-02T04:27:12.711Z,96731.50
2022-10-02T04:28:17.574Z,96732.69
2022-10-02T04:29:25.875Z,96721.47
2022-10-02T04:30:27.452Z,96719.94
2022-10-02T04:31:29.143Z,96719.97
2022-10-02T04:32:32.309Z,96720.75
2022-10-02T04:33:38.239Z,96733.13
2022-10-02T04:34:40.401Z,96731.59
2022-10-02T04:36:22.193Z,96738.53
2022-10-02T04:37:45.745Z,96739.72
2022-10-02T04:38:55.864Z,96744.75
2022-10-02T04:40:06.095Z,96750.56
2022-10-02T04:41:32.586Z,96746.66
2022-10-02T04:43:16.164Z,96756.75
2022-10-02T04:44:49.801Z,96757.94
2022-10-02T04:46:02.983Z,96768.00
2022-10-02T04:47:28.913Z,96774.59
2022-10-02T04:48:37.408Z,96770.31
2022-10-02T04:49:54.252Z,96768.75
2022-10-02T04:51:07.885Z,96764.03
2022-10-02T04:52:35.137Z,96769.47
2022-10-02T04:53:52.926Z,96777.66
2022-10-02T04:55:25.712Z,96781.16
2022-10-02T04:56:40.411Z,96779.66
2022-10-02T04:57:52.786Z,96788.94
2022-10-02T04:59:28.310Z,96786.63
2022-10-02T05:00:41.849Z,96782.75
2022-10-02T05:02:13.281Z,96795.09
2022-10-02T05:03:24.884Z,96793.13
2022-10-02T05:04:47.762Z,96801.16
2022-10-02T05:06:24.433Z,96792.94
2022-10-02T05:08:03.134Z,96795.59
2022-10-02T05:09:13.991Z,96787.81
2022-10-02T05:10:30.788Z,96793.97
2022-10-02T05:11:35.001Z,96793.13
2022-10-02T05:13:23.639Z,96794.63
2022-10-02T05:14:46.124Z,96799.22
2022-10-02T05:15:54.139Z,96806.91
2022-10-02T05:17:01.659Z,96793.78
2022-10-02T05:18:18.106Z,96801.56
2022-10-02T05:19:42.043Z,96802.38
2022-10-02T05:21:01.640Z,96805.22
2022-10-02T05:22:29.462Z,96812.63
2022-10-02T05:24:09.248Z,96817.28
2022-10-02T05:25:31.624Z,96827.78
2022-10-02T05:26:36.286Z,96820.44
2022-10-02T05:27:47.032Z,96830.84
2022-10-02T05:28:57.761Z,96834.72
2022-10-02T05:30:09.220Z,96841.28
2022-10-02T05:31:15.839Z,96843.63
2022-10-02T05:32:17.335Z,96845.19
2022-10-02T05:33:32.238Z,96839.41
2022-10-02T05:34:45.635Z,96845.19
2022-10-02T05:36:08.228Z,96859.91
2022-10-02T05:37:37.613Z,96850.22
2022-10-02T05:38:51.045Z,96850.63
2022-10-02T05:40:19.921Z,96840.56
2022-10-02T05:41:27.692Z,96855.66
2022-10-02T05:42:29.196Z,96861.88
2022-10-02T05:43:35.792Z,96869.22
2022-10-02T05:44:45.540Z,96870.81
2022-10-02T05:45:52.948Z,96878.59
2022-10-02T05:47:18.219Z,96874.75
2022-10-02T05:48:40.642Z,96873.59
2022-10-02T05:49:51.929Z,96878.25
2022-10-02T05:51:00.015Z,96881.75
2022-10-02T05:52:16.524Z,96880.59
2022-10-02T05:53:39.650Z,96873.25
2022-10-02T05:54:58.720Z,96884.47
2022-10-02T05:56:04.357Z,96886.47
2022-10-02T05:57:26.357Z,96894.63
2022-10-02T05:58:33.850Z,96895.81
2022-10-02T05:59:42.498Z,96899.69
2022-10-02T06:00:52.680Z,96902.81
2022-10-02T06:01:58.155Z,96897.38
2022-10-02T06:03:26.159Z,96903.59
2022-10-02T06:04:32.102Z,96902.47
2022-10-02T06:06:07.089Z,96909.06
2022-10-02T06:07:12.120Z,96908.34
2022-10-02T06:08:18.788Z,96912.22
2022-10-02T06:09:33.728Z,96919.31
2022-10-02T06:10:43.488Z,96916.38
2022-10-02T06:12:26.841Z,96919.63
2022-10-02T06:13:40.045Z,96914.34
2022-10-02T06:14:51.050Z,96922.16
2022-10-02T06:16:23.049Z,96921.06
2022-10-02T06:17:31.019Z,96920.72
2022-10-02T06:18:35.522Z,96920.75
2022-10-02T06:19:48.875Z,96926.69
2022-10-02T06:21:02.833Z,96929.47
2022-10-02T06:22:18.725Z,96928.75
2022-10-02T06:23:36.437Z,96930.69
2022-10-02T06:24:48.867Z,96929.53
2022-10-02T06:26:05.141Z,96934.16
2022-10-02T06:27:31.605Z,96934.13
2022-10-02T06:28:53.363Z,96926.41
2022-10-02T06:29:59.969Z,96937.25
2022-10-02T06:31:14.155Z,96935.72
2022-10-02T06:32:25.329Z,96942.69
2022-10-02T06:33:30.349Z,96943.50
2022-10-02T06:34:31.948Z,96947.38
2022-10-02T06:36:07.395Z,96948.94
2022-10-02T06:37:21.655Z,96938.81
2022-10-02T06:38:41.744Z,96945.00
2022-10-02T06:39:58.436Z,96947.34
2022-10-02T06:41:20.478Z,96949.69
2022-10-02T06:42:32.487Z,96955.19
2022-10-02T06:44:14.900Z,96954.47
2022-10-02T06:45:24.410Z,96960.34
2022-10-02T06:46:37.113Z,96958.44
2022-10-02T06:47:38.749Z,96959.97
2022-10-02T06:48:53.040Z,96961.59
2022-10-02T06:50:15.844Z,96965.13
2022-10-02T06:51:23.365Z,96962.38
2022-10-02T06:52:49.170Z,96963.16
2022-10-02T06:54:23.138Z,96964.72
2022-10-02T06:56:00.394Z,96961.19
2022-10-02T06:57:17.967Z,96974.00
2022-10-02T06:58:40.450Z,96975.19
2022-10-02T06:59:57.433Z,96980.25
2022-10-02T07:01:15.042Z,96983.72
2022-10-02T07:02:32.591Z,96989.19
2022-10-02T07:03:46.177Z,96979.47
2022-10-02T07:04:56.683Z,96970.91
2022-10-02T07:06:13.685Z,96992.31
2022-10-02T07:07:24.770Z,96990.34
2022-10-02T07:08:49.959Z,96987.63
2022-10-02T07:10:11.540Z,96994.19
2022-10-02T07:11:40.953Z,97001.16
2022-10-02T07:13:09.415Z,96996.50
2022-10-02T07:14:13.915Z,96996.47
2022-10-02T07:15:42.947Z,96996.09
2022-10-02T07:17:05.268Z,96976.25
2022-10-02T07:18:32.241Z,96988.28
2022-10-02T07:20:09.058Z,96977.78
2022-10-02T07:21:41.651Z,96986.25
2022-10-02T07:23:00.307Z,96987.78
2022-10-02T07:24:19.763Z,96985.44
2022-10-02T07:25:34.365Z,96987.72
2022-10-02T07:26:41.818Z,96983.09
2022-10-02T07:28:12.819Z,96990.84
2022-10-02T07:29:37.833Z,96982.28
2022-10-02T07:31:18.858Z,96982.34
2022-10-02T07:32:51.423Z,96978.56
2022-10-02T07:34:41.145Z,96959.22
2022-10-02T07:36:11.914Z,96968.53
2022-10-02T07:37:27.728Z,96967.03
2022-10-02T07:38:44.227Z,96977.91
2022-10-02T07:39:51.767Z,96976.78
2022-10-02T07:41:14.911Z,96973.25
2022-10-02T07:42:38.658Z,96964.72
2022-10-02T07:44:20.277Z,96962.00
2022-10-02T07:45:39.107Z,96960.03
2022-10-02T07:46:49.909Z,96959.25
2022-10-02T07:48:06.526Z,96950.72
2022-10-02T07:49:08.066Z,96951.09
2022-10-02T07:50:13.958Z,96953.81
2022-10-02T07:52:00.414Z,96934.38
2022-10-02T07:53:18.074Z,96954.59
2022-10-02T07:54:28.786Z,96942.94
2022-10-02T07:55:32.483Z,96946.03
2022-10-02T07:56:35.785Z,96949.94
2022-10-02T07:58:15.186Z,96939.81
2022-10-02T07:59:18.399Z,96946.81
2022-10-02T08:00:25.614Z,96942.94
2022-10-02T08:01:33.465Z,96960.03
2022-10-02T08:02:58.095Z,96957.28
2022-10-02T08:04:09.652Z,96939.00
2022-10-02T08:05:19.079Z,96944.47
2022-10-02T08:06:20.657Z,96957.31
2022-10-02T08:07:22.491Z,96949.91
2022-10-02T08:08:45.416Z,96966.25
2022-10-02T08:09:52.087Z,96976.34
2022-10-02T08:11:02.033Z,96942.88
2022-10-02T08:12:13.997Z,96954.59
2022-10-02T08:13:39.765Z,96959.22
2022-10-02T08:14:45.678Z,96970.91
2022-10-02T08:15:52.496Z,96963.91
2022-10-02T08:16:56.574Z,96967.00
2022-10-02T08:18:33.015Z,96963.88
2022-10-02T08:19:47.976Z,96969.34
2022-10-02T08:20:49.632Z,96966.22
2022-10-02T08:21:58.588Z,96965.03
2022-10-02T08:23:09.443Z,96967.75
2022-10-02T08:24:16.847Z,96978.63
2022-10-02T08:25:28.883Z,96968.09
2022-10-02T08:26:43.447Z,96950.25
2022-10-02T08:27:59.926Z,96964.28
2022-10-02T08:29:12.009Z,96967.81
2022-10-02T08:30:14.805Z,96960.41
2022-10-02T08:31:16.434Z,96965.84
2022-10-02T08:32:18.038Z,96977.53
2022-10-02T08:33:22.998Z,96968.19
2022-10-02T08:34:25.780Z,96979.47
2022-10-02T08:36:08.006Z,96974.00
2022-10-02T08:37:42.646Z,96991.13
2022-10-02T08:38:54.458Z,96987.22
2022-10-02T08:40:22.280Z,96973.19
2022-10-02T08:41:26.417Z,96977.09
2022-10-02T08:42:57.751Z,96983.31
2022-10-02T08:44:36.684Z,96992.63
2022-10-02T08:45:50.297Z,96982.09
2022-10-02T08:47:33.137Z,96983.22
2022-10-02T08:48:59.361Z,96982.09
2022-10-02T08:50:20.342Z,96989.50
2022-10-02T08:51:33.732Z,96984.03
2022-10-02T08:52:54.012Z,96970.00
2022-10-02T08:54:15.507Z,96980.94
2022-10-02T08:55:42.233Z,96984.03
2022-10-02T08:56:55.084Z,96980.50
2022-10-02T08:58:05.396Z,96975.47
2022-10-02T08:59:27.849Z,96986.38
2022-10-02T09:00:48.206Z,96984.84
2022-10-02T09:02:42.081Z,96980.97
2022-10-02T09:04:10.622Z,96993.44
2022-10-02T09:05:30.873Z,96996.91
2022-10-02T09:07:03.317Z,96992.53
2022-10-02T09:08:42.553Z,96988.56
2022-10-02T09:10:04.177Z,96965.91
2022-10-02T09:11:54.737Z,96983.50
2022-10-02T09:13:02.171Z,96999.47
2022-10-02T09:14:27.660Z,96990.47
2022-10-02T09:15:38.075Z,96987.75
2022-10-02T09:16:58.506Z,96998.69
2022-10-02T09:18:26.253Z,96998.31
2022-10-02T09:20:05.729Z,96989.34
2022-10-02T09:21:18.591Z,96987.72
2022-10-02T09:22:57.516Z,96980.00
2022-10-02T09:24:32.394Z,96979.22
2022-10-02T09:25:44.731Z,96976.06
2022-10-02T09:27:05.073Z,96978.75
2022-10-02T09:28:30.941Z,96981.41
2022-10-02T09:30:12.074Z,96976.72
2022-10-02T09:31:51.031Z,96984.66
2022-10-02T09:33:16.124Z,96995.25
2022-10-02T09:34:52.004Z,96997.25
2022-10-02T09:36:12.245Z,97008.16
2022-10-02T09:37:41.559Z,96981.28
2022-10-02T09:39:18.128Z,96986.34
2022-10-02T09:40:29.469Z,97001.09
2022-10-02T09:42:20.038Z,96994.41
2022-10-02T09:43:36.793Z,96974.16
2022-10-02T09:45:11.291Z,97001.41
2022-10-02T09:47:00.319Z,96985.84
2022-10-02T09:48:30.407Z,96989.75
2022-10-02T09:49:50.092Z,96980.00
2022-10-02T09:51:26.635Z,96983.09
2022-10-02T09:52:46.779Z,96980.75
2022-10-02T09:53:57.480Z,96994.81
2022-10-02T09:55:23.761Z,96996.34
2022-10-02T09:56:37.950Z,96985.38
2022-10-02T09:57:58.434Z,96996.97
2022-10-02T09:59:12.218Z,96999.28
2022-10-02T10:00:19.386Z,97005.50
2022-10-02T10:01:28.044Z,97006.22
2022-10-02T10:02:56.087Z,97003.81
2022-10-02T10:05:01.247Z,97002.25
2022-10-02T10:06:15.457Z,97000.06
2022-10-02T10:07:35.360Z,96998.06
2022-10-02T10:09:11.743Z,96993.34
2022-10-02T10:10:31.504Z,96995.31
2022-10-02T10:11:58.023Z,97001.09
2022-10-02T10:13:21.467Z,97004.53
2022-10-02T10:14:41.413Z,97002.19
2022-10-02T10:16:23.174Z,96983.53
2022-10-02T10:17:30.837Z,97003.84
2022-10-02T10:18:57.293Z,96986.63
2022-10-02T10:20:23.259Z,96997.66
2022-10-02T10:21:38.566Z,96996.09
2022-10-02T10:22:52.209Z,96999.22
2022-10-02T10:24:31.429Z,96992.13
2022-10-02T10:26:00.144Z,96997.50
2022-10-02T10:27:25.004Z,96987.72
2022-10-02T10:29:09.099Z,96985.84
2022-10-02T10:30:37.465Z,96979.56
2022-10-02T10:31:50.973Z,96982.63
2022-10-02T10:33:17.383Z,96984.16
2022-10-02T10:34:21.835Z,96981.06
2022-10-02T10:35:41.544Z,96972.44
2022-10-02T10:37:33.291Z,96972.44
2022-10-02T10:38:53.296Z,96976.88
2022-10-02T10:40:14.331Z,96974.97
2022-10-02T10:41:45.082Z,96967.16
2022-10-02T10:43:14.281Z,96977.25
2022-10-02T10:45:03.103Z,96971.91
2022-10-02T10:46:36.751Z,96978.97
2022-10-02T10:47:55.378Z,96978.50
2022-10-02T10:49:20.202Z,96982.72
2022-10-02T10:50:40.571Z,96967.16
2022-10-02T10:52:16.268Z,96974.25
2022-10-02T10:54:05.500Z,96974.13
2022-10-02T10:55:53.084Z,96967.16
2022-10-02T10:57:12.931Z,96969.50
2022-10-02T10:58:50.474Z,96968.38
2022-10-02T11:00:18.965Z,96971.84
2022-10-02T11:01:28.986Z,96956.97
2022-10-02T11:02:54.777Z,96964.78
2022-10-02T11:04:18.323Z,96952.69
2022-10-02T11:05:31.899Z,96957.75
2022-10-02T11:06:51.359Z,96971.06
2022-10-02T11:08:11.023Z,96961.69
2022-10-02T11:09:37.341Z,96950.81
2022-10-02T11:11:03.312Z,96962.91
2022-10-02T11:12:21.772Z,96972.66
2022-10-02T11:13:26.070Z,96967.97
2022-10-02T11:14:41.578Z,96970.34
2022-10-02T11:16:06.544Z,96964.06
2022-10-02T11:17:36.430Z,96966.50
2022-10-02T11:18:40.947Z,96960.19
2022-10-02T11:20:38.194Z,96966.75
2022-10-02T11:21:42.569Z,96961.69
2022-10-02T11:23:14.533Z,96958.19
2022-10-02T11:24:48.913Z,96959.75
2022-10-02T11:26:10.400Z,96957.72
2022-10-02T11:27:24.913Z,96964.03
2022-10-02T11:28:48.120Z,96960.19
2022-10-02T11:30:20.648Z,96943.75
2022-10-02T11:31:48.217Z,96950.44
2022-10-02T11:33:21.891Z,96964.97
2022-10-02T11:34:51.026Z,96952.50
2022-10-02T11:36:09.607Z,96951.66
2022-10-02T11:37:36.808Z,96946.25
2022-10-02T11:39:05.865Z,96947.06
2022-10-02T11:40:25.775Z,96936.91
2022-10-02T11:41:55.958Z,96946.69
2022-10-02T11:43:16.277Z,96947.09
2022-10-02T11:44:28.173Z,96931.47
2022-10-02T11:45:47.941Z,96950.22
2022-10-02T11:47:35.329Z,96956.47
2022-10-02T11:49:03.910Z,96952.91
2022-10-02T11:50:42.004Z,96950.94
2022-10-02T11:51:58.756Z,96946.56
2022-10-02T11:53:00.231Z,96961.78
2022-10-02T11:54:29.711Z,96955.53
2022-10-02T11:56:01.097Z,96933.69
2022-10-02T11:57:21.144Z,96943.09
2022-10-02T11:58:56.954Z,96954.00
2022-10-02T12:00:05.844Z,96951.59
2022-10-02T12:01:49.375Z,96949.22
2022-10-02T12:03:01.796Z,96935.91
2022-10-02T12:04:20.715Z,96937.56
2022-10-02T12:05:28.050Z,96950.81
2022-10-02T12:07:05.111Z,96953.94
2022-10-02T12:08:30.385Z,96938.22
2022-10-02T12:09:57.138Z,96953.03
2022-10-02T12:11:10.050Z,96955.81
2022-10-02T12:12:31.489Z,96946.91
2022-10-02T12:13:48.251Z,96956.31
2022-10-02T12:15:04.992Z,96959.47
2022-10-02T12:16:21.837Z,96953.22
2022-10-02T12:18:00.181Z,96943.00
2022-10-02T12:19:30.932Z,96948.91
2022-10-02T12:21:02.310Z,96960.97
2022-10-02T12:22:47.818Z,96960.91
2022-10-02T12:24:26.161Z,96966.38
2022-10-02T12:25:45.899Z,96966.38
2022-10-02T12:27:00.851Z,96967.31
2022-10-02T12:28:31.544Z,96954.81
2022-10-02T12:29:52.121Z,96958.69
2022-10-02T12:31:06.814Z,96959.53
2022-10-02T12:32:27.101Z,96968.16
2022-10-02T12:33:40.973Z,96961.88
2022-10-02T12:34:52.708Z,96957.59
2022-10-02T12:36:15.579Z,96959.59
2022-10-02T12:37:45.075Z,96959.28
2022-10-02T12:38:53.476Z,96969.47
2022-10-02T12:40:13.773Z,96962.47
2022-10-02T12:41:24.264Z,96964.41
2022-10-02T12:42:51.357Z,96961.28
2022-10-02T12:44:05.339Z,96957.41
2022-10-02T12:45:50.309Z,96961.34
2022-10-02T12:47:10.190Z,96967.22
2022-10-02T12:48:21.259Z,96973.13
2022-10-02T12:49:23.740Z,96971.56
2022-10-02T12:51:07.061Z,96965.34
2022-10-02T12:52:28.350Z,96972.34
2022-10-02T12:53:50.416Z,96963.75
2022-10-02T12:55:19.074Z,96966.09
2022-10-02T12:56:39.479Z,96974.66
2022-10-02T12:58:10.689Z,96955.63
2022-10-02T12:59:56.572Z,96955.19
2022-10-02T13:01:10.149Z,96951.31
2022-10-02T13:02:59.597Z,96961.03
2022-10-02T13:04:22.538Z,96947.38
2022-10-02T13:05:43.520Z,96944.97
2022-10-02T13:06:57.105Z,96950.38
2022-10-02T13:08:05.451Z,96944.47
2022-10-02T13:09:20.958Z,96942.13
2022-10-02T13:10:24.449Z,96946.06
2022-10-02T13:11:36.204Z,96958.16
2022-10-02T13:13:05.793Z,96961.31
2022-10-02T13:14:38.320Z,96951.59
2022-10-02T13:15:59.139Z,96953.91
2022-10-02T13:17:32.601Z,96958.19
2022-10-02T13:18:45.901Z,96966.34
2022-10-02T13:20:01.498Z,96967.91
2022-10-02T13:21:30.337Z,96956.63
2022-10-02T13:22:34.957Z,96966.78
2022-10-02T13:23:41.861Z,96964.81
2022-10-02T13:25:01.699Z,96968.34
2022-10-02T13:26:41.238Z,96970.31
2022-10-02T13:27:49.511Z,96967.59
2022-10-02T13:29:06.299Z,96955.16
2022-10-02T13:30:14.150Z,96955.97
2022-10-02T13:31:18.687Z,96961.41
2022-10-02T13:32:42.010Z,96958.66
2022-10-02T13:34:06.889Z,96959.84
2022-10-02T13:35:20.541Z,96963.75
2022-10-02T13:36:47.265Z,96972.72
2022-10-02T13:38:10.582Z,96975.34
2022-10-02T13:39:18.073Z,96971.84
2022-10-02T13:40:27.202Z,96973.75
2022-10-02T13:41:55.807Z,96952.72
2022-10-02T13:43:29.292Z,96964.41
2022-10-02T13:44:47.096Z,96965.19
2022-10-02T13:45:56.237Z,96973.78
2022-10-02T13:47:00.711Z,96969.06
2022-10-02T13:48:28.081Z,96963.19
2022-10-02T13:49:35.494Z,96994.78
2022-10-02T13:51:06.092Z,96986.19
2022-10-02T13:52:27.400Z,96979.22
2022-10-02T13:53:39.716Z,96983.13
2022-10-02T13:54:54.811Z,96980.81
2022-10-02T13:56:15.775Z,96984.31
2022-10-02T13:57:29.304Z,96985.53
2022-10-02T13:58:46.103Z,96980.09
2022-10-02T14:00:25.310Z,96983.25
2022-10-02T14:01:52.631Z,96974.69
2022-10-02T14:03:03.899Z,96983.28
2022-10-02T14:04:13.477Z,96985.25
2022-10-02T14:05:42.663Z,96987.97
2022-10-02T14:06:59.178Z,96982.16
2022-10-02T14:08:06.873Z,96979.44
2022-10-02T14:09:20.404Z,96975.53
2022-10-02T14:10:21.892Z,96975.13
2022-10-02T14:11:46.518Z,96977.06
2022-10-02T14:13:03.022Z,96970.84
2022-10-02T14:14:26.033Z,96969.28
2022-10-02T14:15:43.298Z,96959.16
2022-10-02T14:17:12.321Z,96968.09
2022-10-02T14:18:35.375Z,96952.94
2022-10-02T14:20:01.300Z,96964.97
2022-10-02T14:21:14.211Z,96967.69
2022-10-02T14:22:21.465Z,96963.78
2022-10-02T14:23:31.681Z,96966.88
2022-10-02T14:25:01.280Z,96962.56
2022-10-02T14:26:40.007Z,96956.31
2022-10-02T14:28:05.926Z,96955.16
2022-10-02T14:29:27.417Z,96953.97
2022-10-02T14:30:39.264Z,96957.47
2022-10-02T14:31:52.687Z,96963.69
2022-10-02T14:33:26.904Z,96950.47
2022-10-02T14:34:53.645Z,96955.53
2022-10-02T14:36:05.257Z,96965.31
2022-10-02T14:37:24.574Z,96949.78
2022-10-02T14:39:14.014Z,96939.63
2022-10-02T14:40:18.056Z,96943.16
2022-10-02T14:41:51.842Z,96955.22
2022-10-02T14:43:05.314Z,96952.53
2022-10-02T14:44:39.616Z,96943.19
2022-10-02T14:46:07.643Z,96949.38
2022-10-02T14:47:15.660Z,96957.16
2022-10-02T14:48:50.583Z,96953.66
2022-10-02T14:50:16.566Z,96945.50
2022-10-02T14:51:30.130Z,96954.44
2022-10-02T14:53:04.228Z,96936.50
2022-10-02T14:54:34.968Z,96921.72
2022-10-02T14:56:24.990Z,96936.94
2022-10-02T14:57:44.701Z,96936.56
2022-10-02T14:59:04.442Z,96940.84
2022-10-02T15:00:13.730Z,96932.69
2022-10-02T15:01:23.439Z,96942.81
2022-10-02T15:03:11.046Z,96939.69
2022-10-02T15:04:30.582Z,96935.03
2022-10-02T15:05:56.155Z,96944.38
2022-10-02T15:07:14.677Z,96937.81
2022-10-02T15:08:21.523Z,96942.06
2022-10-02T15:09:44.780Z,96935.84
2022-10-02T15:10:49.266Z,96932.34
2022-10-02T15:12:06.330Z,96921.06
2022-10-02T15:13:39.866Z,96938.97
2022-10-02T15:15:02.682Z,96933.94
2022-10-02T15:16:38.716Z,96941.31
2022-10-02T15:17:55.360Z,96938.59
2022-10-02T15:19:16.883Z,96943.63
2022-10-02T15:20:38.519Z,96949.13